Satellite Precipitation Estimates (TXUS20 KWBC)
Issued by NWS

Current Version | Previous Version | Text Only | Print | Product List | Glossary On
Versions: 1 2 3 4
000
SPTD31 TTPP 050744
SPECI
TTPP 050738Z 13005KT 0500 TSRA FEW010CB BKN012 24/24 Q1013=



USA.gov is the U.S. government's official web portal to all federal, state and local government web resources and services.